sensor_id;sensor_type;location;lat;lon;timestamp;P1;durP1;ratioP1;P2;durP2;ratioP2
78072;SDS011;67281;48.770;11.440;2023-05-21T00:01:35;8.83;;;7.47;;
78072;SDS011;67281;48.770;11.440;2023-05-21T00:04:02;10.43;;;8.10;;
78072;SDS011;67281;48.770;11.440;2023-05-21T00:06:29;8.83;;;7.73;;
78072;SDS011;67281;48.770;11.440;2023-05-21T00:08:57;9.13;;;8.10;;
78072;SDS011;67281;48.770;11.440;2023-05-21T00:11:24;8.57;;;7.70;;
78072;SDS011;67281;48.770;11.440;2023-05-21T00:13:51;9.10;;;7.63;;
78072;SDS011;67281;48.770;11.440;2023-05-21T00:16:18;9.33;;;7.83;;
78072;SDS011;67281;48.770;11.440;2023-05-21T00:18:45;8.27;;;7.43;;
78072;SDS011;67281;48.770;11.440;2023-05-21T00:21:13;9.87;;;7.60;;
78072;SDS011;67281;48.770;11.440;2023-05-21T00:23:42;9.67;;;7.87;;
78072;SDS011;67281;48.770;11.440;2023-05-21T00:26:10;9.70;;;7.90;;
78072;SDS011;67281;48.770;11.440;2023-05-21T00:28:37;7.80;;;7.00;;
78072;SDS011;67281;48.770;11.440;2023-05-21T00:31:04;8.10;;;6.70;;
78072;SDS011;67281;48.770;11.440;2023-05-21T00:33:31;8.43;;;7.53;;
78072;SDS011;67281;48.770;11.440;2023-05-21T00:35:59;8.90;;;7.77;;
78072;SDS011;67281;48.770;11.440;2023-05-21T00:38:27;9.57;;;7.00;;
78072;SDS011;67281;48.770;11.440;2023-05-21T00:40:54;8.93;;;7.17;;
78072;SDS011;67281;48.770;11.440;2023-05-21T00:43:21;9.90;;;7.73;;
78072;SDS011;67281;48.770;11.440;2023-05-21T00:45:51;8.57;;;7.73;;
78072;SDS011;67281;48.770;11.440;2023-05-21T00:48:19;10.30;;;7.10;;
78072;SDS011;67281;48.770;11.440;2023-05-21T00:50:46;9.93;;;7.87;;
78072;SDS011;67281;48.770;11.440;2023-05-21T00:53:16;7.97;;;7.27;;
78072;SDS011;67281;48.770;11.440;2023-05-21T00:55:45;7.73;;;6.87;;
78072;SDS011;67281;48.770;11.440;2023-05-21T00:58:12;9.30;;;6.73;;
78072;SDS011;67281;48.770;11.440;2023-05-21T01:00:39;9.20;;;7.70;;
78072;SDS011;67281;48.770;11.440;2023-05-21T01:03:07;12.17;;;8.13;;
78072;SDS011;67281;48.770;11.440;2023-05-21T01:05:35;8.50;;;7.60;;
78072;SDS011;67281;48.770;11.440;2023-05-21T01:08:02;10.57;;;7.90;;
78072;SDS011;67281;48.770;11.440;2023-05-21T01:10:30;9.60;;;8.17;;
78072;SDS011;67281;48.770;11.440;2023-05-21T01:12:57;7.33;;;6.63;;
78072;SDS011;67281;48.770;11.440;2023-05-21T01:15:25;9.47;;;8.23;;
78072;SDS011;67281;48.770;11.440;2023-05-21T01:17:53;9.23;;;7.83;;
78072;SDS011;67281;48.770;11.440;2023-05-21T01:20:21;8.27;;;7.43;;
78072;SDS011;67281;48.770;11.440;2023-05-21T01:25:19;9.07;;;7.30;;
78072;SDS011;67281;48.770;11.440;2023-05-21T01:27:47;8.67;;;7.77;;
78072;SDS011;67281;48.770;11.440;2023-05-21T01:30:18;8.80;;;7.63;;
78072;SDS011;67281;48.770;11.440;2023-05-21T01:32:48;8.43;;;7.53;;
78072;SDS011;67281;48.770;11.440;2023-05-21T01:35:53;10.40;;;7.77;;
78072;SDS011;67281;48.770;11.440;2023-05-21T01:38:21;10.63;;;8.37;;
78072;SDS011;67281;48.770;11.440;2023-05-21T01:40:54;8.73;;;7.77;;
78072;SDS011;67281;48.770;11.440;2023-05-21T01:43:24;10.43;;;7.97;;
78072;SDS011;67281;48.770;11.440;2023-05-21T01:45:54;9.93;;;8.03;;
78072;SDS011;67281;48.770;11.440;2023-05-21T01:48:23;10.20;;;8.90;;
78072;SDS011;67281;48.770;11.440;2023-05-21T01:50:53;10.80;;;8.70;;
78072;SDS011;67281;48.770;11.440;2023-05-21T01:53:22;7.97;;;7.00;;
78072;SDS011;67281;48.770;11.440;2023-05-21T01:55:50;12.90;;;7.93;;
78072;SDS011;67281;48.770;11.440;2023-05-21T01:58:16;8.30;;;7.33;;
78072;SDS011;67281;48.770;11.440;2023-05-21T02:00:44;9.50;;;7.87;;
78072;SDS011;67281;48.770;11.440;2023-05-21T02:03:12;8.83;;;7.93;;
78072;SDS011;67281;48.770;11.440;2023-05-21T02:05:42;10.60;;;7.77;;
78072;SDS011;67281;48.770;11.440;2023-05-21T02:08:10;8.30;;;7.50;;
78072;SDS011;67281;48.770;11.440;2023-05-21T02:10:38;10.10;;;7.60;;
78072;SDS011;67281;48.770;11.440;2023-05-21T02:13:05;9.13;;;8.07;;
78072;SDS011;67281;48.770;11.440;2023-05-21T02:15:32;9.80;;;7.70;;
78072;SDS011;67281;48.770;11.440;2023-05-21T02:18:02;8.67;;;7.37;;
78072;SDS011;67281;48.770;11.440;2023-05-21T02:20:29;10.63;;;7.97;;
78072;SDS011;67281;48.770;11.440;2023-05-21T02:22:56;10.00;;;7.77;;
78072;SDS011;67281;48.770;11.440;2023-05-21T02:25:23;8.80;;;7.90;;
78072;SDS011;67281;48.770;11.440;2023-05-21T02:27:50;9.30;;;7.70;;
78072;SDS011;67281;48.770;11.440;2023-05-21T02:30:19;9.50;;;8.10;;
78072;SDS011;67281;48.770;11.440;2023-05-21T02:32:46;9.13;;;7.50;;
78072;SDS011;67281;48.770;11.440;2023-05-21T02:35:15;9.63;;;8.00;;
78072;SDS011;67281;48.770;11.440;2023-05-21T02:37:42;8.33;;;7.53;;
78072;SDS011;67281;48.770;11.440;2023-05-21T02:40:11;9.47;;;7.33;;
78072;SDS011;67281;48.770;11.440;2023-05-21T02:42:38;9.37;;;7.87;;
78072;SDS011;67281;48.770;11.440;2023-05-21T02:45:09;8.07;;;7.27;;
78072;SDS011;67281;48.770;11.440;2023-05-21T02:47:37;10.73;;;7.53;;
78072;SDS011;67281;48.770;11.440;2023-05-21T02:50:04;9.80;;;6.93;;
78072;SDS011;67281;48.770;11.440;2023-05-21T02:52:33;11.70;;;7.77;;
78072;SDS011;67281;48.770;11.440;2023-05-21T02:55:00;10.27;;;7.60;;
78072;SDS011;67281;48.770;11.440;2023-05-21T02:57:27;10.63;;;8.47;;
78072;SDS011;67281;48.770;11.440;2023-05-21T02:59:53;8.70;;;7.80;;
78072;SDS011;67281;48.770;11.440;2023-05-21T03:02:20;9.87;;;8.27;;
78072;SDS011;67281;48.770;11.440;2023-05-21T03:04:47;9.27;;;8.37;;
78072;SDS011;67281;48.770;11.440;2023-05-21T03:07:16;8.77;;;7.87;;
78072;SDS011;67281;48.770;11.440;2023-05-21T03:09:46;9.20;;;8.30;;
78072;SDS011;67281;48.770;11.440;2023-05-21T03:12:13;8.70;;;7.83;;
78072;SDS011;67281;48.770;11.440;2023-05-21T03:14:40;9.00;;;8.10;;
78072;SDS011;67281;48.770;11.440;2023-05-21T03:17:09;11.50;;;8.57;;
78072;SDS011;67281;48.770;11.440;2023-05-21T03:19:42;9.00;;;7.53;;
78072;SDS011;67281;48.770;11.440;2023-05-21T03:22:10;11.40;;;8.23;;
78072;SDS011;67281;48.770;11.440;2023-05-21T03:24:37;9.00;;;7.93;;
78072;SDS011;67281;48.770;11.440;2023-05-21T03:27:04;8.97;;;7.73;;
78072;SDS011;67281;48.770;11.440;2023-05-21T03:29:32;8.67;;;7.47;;
78072;SDS011;67281;48.770;11.440;2023-05-21T03:32:00;8.83;;;7.70;;
78072;SDS011;67281;48.770;11.440;2023-05-21T03:34:27;10.70;;;7.50;;
78072;SDS011;67281;48.770;11.440;2023-05-21T03:36:54;10.43;;;7.67;;
78072;SDS011;67281;48.770;11.440;2023-05-21T03:39:21;8.63;;;7.60;;
78072;SDS011;67281;48.770;11.440;2023-05-21T03:41:48;8.50;;;7.50;;
78072;SDS011;67281;48.770;11.440;2023-05-21T03:44:15;8.37;;;7.50;;
78072;SDS011;67281;48.770;11.440;2023-05-21T03:46:42;8.80;;;7.57;;
78072;SDS011;67281;48.770;11.440;2023-05-21T03:49:10;10.30;;;7.73;;
78072;SDS011;67281;48.770;11.440;2023-05-21T03:51:37;8.73;;;7.83;;
78072;SDS011;67281;48.770;11.440;2023-05-21T03:54:05;9.17;;;7.20;;
78072;SDS011;67281;48.770;11.440;2023-05-21T03:56:32;8.33;;;7.30;;
78072;SDS011;67281;48.770;11.440;2023-05-21T03:58:58;7.77;;;6.93;;
78072;SDS011;67281;48.770;11.440;2023-05-21T04:01:26;10.00;;;8.10;;
78072;SDS011;67281;48.770;11.440;2023-05-21T04:03:54;9.33;;;7.50;;
78072;SDS011;67281;48.770;11.440;2023-05-21T04:06:21;7.80;;;6.87;;
78072;SDS011;67281;48.770;11.440;2023-05-21T04:08:48;7.60;;;6.83;;
78072;SDS011;67281;48.770;11.440;2023-05-21T04:11:15;10.07;;;7.43;;
78072;SDS011;67281;48.770;11.440;2023-05-21T04:13:42;8.03;;;6.90;;
78072;SDS011;67281;48.770;11.440;2023-05-21T04:16:09;7.83;;;7.13;;
78072;SDS011;67281;48.770;11.440;2023-05-21T04:18:36;8.93;;;7.30;;
78072;SDS011;67281;48.770;11.440;2023-05-21T04:21:03;10.93;;;7.63;;
78072;SDS011;67281;48.770;11.440;2023-05-21T04:23:30;8.40;;;7.60;;
78072;SDS011;67281;48.770;11.440;2023-05-21T04:25:57;9.90;;;7.53;;
78072;SDS011;67281;48.770;11.440;2023-05-21T04:28:24;9.10;;;7.90;;
78072;SDS011;67281;48.770;11.440;2023-05-21T04:30:54;8.83;;;6.77;;
78072;SDS011;67281;48.770;11.440;2023-05-21T04:33:22;8.93;;;6.47;;
78072;SDS011;67281;48.770;11.440;2023-05-21T04:35:50;9.27;;;7.30;;
78072;SDS011;67281;48.770;11.440;2023-05-21T04:38:17;9.70;;;8.17;;
78072;SDS011;67281;48.770;11.440;2023-05-21T04:40:47;7.80;;;7.00;;
78072;SDS011;67281;48.770;11.440;2023-05-21T04:43:16;9.00;;;7.87;;
78072;SDS011;67281;48.770;11.440;2023-05-21T04:45:43;9.30;;;7.10;;
78072;SDS011;67281;48.770;11.440;2023-05-21T04:48:10;9.70;;;8.20;;
78072;SDS011;67281;48.770;11.440;2023-05-21T04:50:38;9.07;;;8.10;;
78072;SDS011;67281;48.770;11.440;2023-05-21T04:53:06;11.33;;;7.93;;
78072;SDS011;67281;48.770;11.440;2023-05-21T04:55:34;8.93;;;8.00;;
78072;SDS011;67281;48.770;11.440;2023-05-21T04:58:05;9.97;;;8.70;;
78072;SDS011;67281;48.770;11.440;2023-05-21T05:00:33;10.57;;;8.10;;
78072;SDS011;67281;48.770;11.440;2023-05-21T05:03:00;9.40;;;8.27;;
78072;SDS011;67281;48.770;11.440;2023-05-21T05:05:27;12.13;;;8.00;;
78072;SDS011;67281;48.770;11.440;2023-05-21T05:07:53;11.03;;;8.07;;
78072;SDS011;67281;48.770;11.440;2023-05-21T05:10:21;10.17;;;8.33;;
78072;SDS011;67281;48.770;11.440;2023-05-21T05:12:48;12.27;;;8.53;;
78072;SDS011;67281;48.770;11.440;2023-05-21T05:15:15;9.23;;;8.27;;
78072;SDS011;67281;48.770;11.440;2023-05-21T05:17:42;9.43;;;8.40;;
78072;SDS011;67281;48.770;11.440;2023-05-21T05:20:10;13.77;;;8.70;;
78072;SDS011;67281;48.770;11.440;2023-05-21T05:22:37;11.73;;;8.60;;
78072;SDS011;67281;48.770;11.440;2023-05-21T05:25:04;10.23;;;8.57;;
78072;SDS011;67281;48.770;11.440;2023-05-21T05:27:32;9.97;;;8.80;;
78072;SDS011;67281;48.770;11.440;2023-05-21T05:30:02;12.83;;;8.97;;
78072;SDS011;67281;48.770;11.440;2023-05-21T05:32:29;9.10;;;8.07;;
78072;SDS011;67281;48.770;11.440;2023-05-21T05:34:56;13.73;;;9.03;;
78072;SDS011;67281;48.770;11.440;2023-05-21T05:37:24;11.90;;;9.13;;
78072;SDS011;67281;48.770;11.440;2023-05-21T05:39:51;10.07;;;8.73;;
78072;SDS011;67281;48.770;11.440;2023-05-21T05:42:18;11.97;;;9.20;;
78072;SDS011;67281;48.770;11.440;2023-05-21T05:44:45;8.70;;;7.53;;
78072;SDS011;67281;48.770;11.440;2023-05-21T05:47:12;9.23;;;8.00;;
78072;SDS011;67281;48.770;11.440;2023-05-21T05:49:39;13.73;;;9.33;;
78072;SDS011;67281;48.770;11.440;2023-05-21T05:52:06;11.50;;;8.87;;
78072;SDS011;67281;48.770;11.440;2023-05-21T05:54:33;13.37;;;9.87;;
78072;SDS011;67281;48.770;11.440;2023-05-21T05:57:00;9.87;;;8.83;;
78072;SDS011;67281;48.770;11.440;2023-05-21T05:59:27;12.00;;;9.10;;
78072;SDS011;67281;48.770;11.440;2023-05-21T06:01:54;10.67;;;8.70;;
78072;SDS011;67281;48.770;11.440;2023-05-21T06:04:20;11.93;;;9.03;;
78072;SDS011;67281;48.770;11.440;2023-05-21T06:06:47;10.17;;;8.77;;
78072;SDS011;67281;48.770;11.440;2023-05-21T06:09:14;12.03;;;9.70;;
78072;SDS011;67281;48.770;11.440;2023-05-21T06:11:41;9.87;;;8.60;;
78072;SDS011;67281;48.770;11.440;2023-05-21T06:14:08;10.70;;;9.60;;
78072;SDS011;67281;48.770;11.440;2023-05-21T06:16:35;12.27;;;9.57;;
78072;SDS011;67281;48.770;11.440;2023-05-21T06:19:02;10.57;;;9.07;;
78072;SDS011;67281;48.770;11.440;2023-05-21T06:21:29;10.80;;;9.63;;
78072;SDS011;67281;48.770;11.440;2023-05-21T06:23:56;10.57;;;9.23;;
78072;SDS011;67281;48.770;11.440;2023-05-21T06:26:24;11.40;;;8.77;;
78072;SDS011;67281;48.770;11.440;2023-05-21T06:28:51;14.53;;;9.50;;
78072;SDS011;67281;48.770;11.440;2023-05-21T06:31:17;11.17;;;9.97;;
78072;SDS011;67281;48.770;11.440;2023-05-21T06:33:48;10.27;;;9.17;;
78072;SDS011;67281;48.770;11.440;2023-05-21T06:36:15;10.60;;;9.00;;
78072;SDS011;67281;48.770;11.440;2023-05-21T06:38:42;10.80;;;9.10;;
78072;SDS011;67281;48.770;11.440;2023-05-21T06:41:09;12.20;;;9.93;;
78072;SDS011;67281;48.770;11.440;2023-05-21T06:43:36;11.97;;;10.07;;
78072;SDS011;67281;48.770;11.440;2023-05-21T06:46:03;11.97;;;9.73;;
78072;SDS011;67281;48.770;11.440;2023-05-21T06:48:30;10.80;;;9.17;;
78072;SDS011;67281;48.770;11.440;2023-05-21T06:50:57;10.73;;;9.43;;
78072;SDS011;67281;48.770;11.440;2023-05-21T06:53:24;11.80;;;9.67;;
78072;SDS011;67281;48.770;11.440;2023-05-21T06:55:51;12.57;;;9.67;;
78072;SDS011;67281;48.770;11.440;2023-05-21T06:58:19;12.43;;;10.27;;
78072;SDS011;67281;48.770;11.440;2023-05-21T07:00:47;11.37;;;9.80;;
78072;SDS011;67281;48.770;11.440;2023-05-21T07:03:14;14.53;;;9.77;;
78072;SDS011;67281;48.770;11.440;2023-05-21T07:05:42;12.57;;;9.50;;
78072;SDS011;67281;48.770;11.440;2023-05-21T07:08:08;10.87;;;9.73;;
78072;SDS011;67281;48.770;11.440;2023-05-21T07:10:37;11.10;;;9.27;;
78072;SDS011;67281;48.770;11.440;2023-05-21T07:13:04;10.77;;;9.40;;
78072;SDS011;67281;48.770;11.440;2023-05-21T07:15:31;10.80;;;9.23;;
78072;SDS011;67281;48.770;11.440;2023-05-21T07:17:58;11.07;;;9.63;;
78072;SDS011;67281;48.770;11.440;2023-05-21T07:20:25;12.03;;;8.83;;
78072;SDS011;67281;48.770;11.440;2023-05-21T07:22:52;10.13;;;8.97;;
78072;SDS011;67281;48.770;11.440;2023-05-21T07:25:19;10.27;;;8.20;;
78072;SDS011;67281;48.770;11.440;2023-05-21T07:27:46;10.33;;;8.00;;
78072;SDS011;67281;48.770;11.440;2023-05-21T07:30:13;10.17;;;8.13;;
78072;SDS011;67281;48.770;11.440;2023-05-21T07:32:40;9.10;;;8.20;;
78072;SDS011;67281;48.770;11.440;2023-05-21T07:35:07;9.80;;;8.00;;
78072;SDS011;67281;48.770;11.440;2023-05-21T07:37:35;9.47;;;8.47;;
78072;SDS011;67281;48.770;11.440;2023-05-21T07:40:02;9.03;;;7.77;;
78072;SDS011;67281;48.770;11.440;2023-05-21T07:42:29;9.63;;;8.43;;
78072;SDS011;67281;48.770;11.440;2023-05-21T07:44:56;9.13;;;8.17;;
78072;SDS011;67281;48.770;11.440;2023-05-21T07:47:23;10.33;;;8.30;;
78072;SDS011;67281;48.770;11.440;2023-05-21T07:49:50;9.97;;;8.20;;
78072;SDS011;67281;48.770;11.440;2023-05-21T07:52:17;8.53;;;7.63;;
78072;SDS011;67281;48.770;11.440;2023-05-21T07:54:44;9.23;;;7.93;;
78072;SDS011;67281;48.770;11.440;2023-05-21T07:57:11;9.90;;;7.60;;
78072;SDS011;67281;48.770;11.440;2023-05-21T07:59:38;9.13;;;7.23;;
78072;SDS011;67281;48.770;11.440;2023-05-21T08:02:05;8.07;;;7.13;;
78072;SDS011;67281;48.770;11.440;2023-05-21T08:04:31;7.77;;;6.90;;
78072;SDS011;67281;48.770;11.440;2023-05-21T08:06:58;7.70;;;6.90;;
78072;SDS011;67281;48.770;11.440;2023-05-21T08:09:25;9.00;;;7.23;;
78072;SDS011;67281;48.770;11.440;2023-05-21T08:11:52;8.30;;;6.83;;
78072;SDS011;67281;48.770;11.440;2023-05-21T08:14:19;8.60;;;7.40;;
78072;SDS011;67281;48.770;11.440;2023-05-21T08:16:46;7.63;;;6.93;;
78072;SDS011;67281;48.770;11.440;2023-05-21T08:19:13;8.70;;;7.30;;
78072;SDS011;67281;48.770;11.440;2023-05-21T08:21:40;11.43;;;7.37;;
78072;SDS011;67281;48.770;11.440;2023-05-21T08:24:09;7.93;;;7.13;;
78072;SDS011;67281;48.770;11.440;2023-05-21T08:26:36;8.67;;;7.03;;
78072;SDS011;67281;48.770;11.440;2023-05-21T08:29:04;9.50;;;7.60;;
78072;SDS011;67281;48.770;11.440;2023-05-21T08:31:31;12.30;;;7.60;;
78072;SDS011;67281;48.770;11.440;2023-05-21T08:33:57;10.40;;;7.70;;
78072;SDS011;67281;48.770;11.440;2023-05-21T08:36:24;9.37;;;8.17;;
78072;SDS011;67281;48.770;11.440;2023-05-21T08:39:02;9.63;;;7.57;;
78072;SDS011;67281;48.770;11.440;2023-05-21T08:41:29;9.23;;;7.43;;
78072;SDS011;67281;48.770;11.440;2023-05-21T08:43:59;9.27;;;8.17;;
78072;SDS011;67281;48.770;11.440;2023-05-21T08:46:30;8.87;;;7.70;;
78072;SDS011;67281;48.770;11.440;2023-05-21T08:49:00;10.27;;;7.53;;
78072;SDS011;67281;48.770;11.440;2023-05-21T08:51:29;10.87;;;8.83;;
78072;SDS011;67281;48.770;11.440;2023-05-21T08:53:56;9.23;;;8.20;;
78072;SDS011;67281;48.770;11.440;2023-05-21T08:56:25;9.63;;;7.53;;
78072;SDS011;67281;48.770;11.440;2023-05-21T08:58:52;8.87;;;6.87;;
78072;SDS011;67281;48.770;11.440;2023-05-21T09:01:20;7.37;;;6.60;;
78072;SDS011;67281;48.770;11.440;2023-05-21T09:03:51;7.07;;;6.37;;
78072;SDS011;67281;48.770;11.440;2023-05-21T09:06:39;9.60;;;6.67;;
78072;SDS011;67281;48.770;11.440;2023-05-21T09:12:38;9.67;;;7.20;;
78072;SDS011;67281;48.770;11.440;2023-05-21T09:15:06;7.07;;;6.37;;
78072;SDS011;67281;48.770;11.440;2023-05-21T09:17:33;8.10;;;6.20;;
78072;SDS011;67281;48.770;11.440;2023-05-21T09:22:35;8.40;;;5.67;;
78072;SDS011;67281;48.770;11.440;2023-05-21T09:25:17;9.17;;;6.93;;
78072;SDS011;67281;48.770;11.440;2023-05-21T09:27:47;9.10;;;7.00;;
78072;SDS011;67281;48.770;11.440;2023-05-21T09:30:15;8.03;;;6.03;;
78072;SDS011;67281;48.770;11.440;2023-05-21T09:32:44;8.27;;;7.03;;
78072;SDS011;67281;48.770;11.440;2023-05-21T09:35:12;10.13;;;7.10;;
78072;SDS011;67281;48.770;11.440;2023-05-21T09:37:40;8.33;;;7.23;;
78072;SDS011;67281;48.770;11.440;2023-05-21T09:40:16;8.20;;;6.63;;
78072;SDS011;67281;48.770;11.440;2023-05-21T09:42:47;8.07;;;6.83;;
78072;SDS011;67281;48.770;11.440;2023-05-21T09:47:46;7.57;;;6.73;;
78072;SDS011;67281;48.770;11.440;2023-05-21T09:52:52;6.87;;;5.80;;
78072;SDS011;67281;48.770;11.440;2023-05-21T09:55:21;8.73;;;6.33;;
78072;SDS011;67281;48.770;11.440;2023-05-21T09:57:49;5.80;;;5.20;;
78072;SDS011;67281;48.770;11.440;2023-05-21T10:00:21;7.97;;;5.67;;
78072;SDS011;67281;48.770;11.440;2023-05-21T10:02:52;9.90;;;6.13;;
78072;SDS011;67281;48.770;11.440;2023-05-21T10:05:21;4.87;;;3.93;;
78072;SDS011;67281;48.770;11.440;2023-05-21T10:07:52;6.53;;;5.77;;
78072;SDS011;67281;48.770;11.440;2023-05-21T10:10:29;6.57;;;5.50;;
78072;SDS011;67281;48.770;11.440;2023-05-21T10:13:04;8.40;;;5.77;;
78072;SDS011;67281;48.770;11.440;2023-05-21T10:15:43;8.60;;;6.03;;
78072;SDS011;67281;48.770;11.440;2023-05-21T10:18:13;7.40;;;4.30;;
78072;SDS011;67281;48.770;11.440;2023-05-21T10:20:40;7.50;;;5.70;;
78072;SDS011;67281;48.770;11.440;2023-05-21T10:23:08;10.53;;;6.03;;
78072;SDS011;67281;48.770;11.440;2023-05-21T10:25:35;6.57;;;5.17;;
78072;SDS011;67281;48.770;11.440;2023-05-21T10:28:03;7.43;;;4.60;;
78072;SDS011;67281;48.770;11.440;2023-05-21T10:30:32;7.17;;;5.40;;
78072;SDS011;67281;48.770;11.440;2023-05-21T10:33:02;11.87;;;6.80;;
78072;SDS011;67281;48.770;11.440;2023-05-21T10:35:30;7.50;;;6.20;;
78072;SDS011;67281;48.770;11.440;2023-05-21T10:37:59;6.80;;;6.10;;
78072;SDS011;67281;48.770;11.440;2023-05-21T10:40:29;8.37;;;6.07;;
78072;SDS011;67281;48.770;11.440;2023-05-21T10:48:32;7.40;;;5.57;;
78072;SDS011;67281;48.770;11.440;2023-05-21T10:51:15;6.90;;;5.77;;
78072;SDS011;67281;48.770;11.440;2023-05-21T10:53:49;6.90;;;5.47;;
78072;SDS011;67281;48.770;11.440;2023-05-21T10:56:31;7.07;;;6.23;;
78072;SDS011;67281;48.770;11.440;2023-05-21T10:59:19;5.43;;;4.60;;
78072;SDS011;67281;48.770;11.440;2023-05-21T11:01:57;6.93;;;5.60;;
78072;SDS011;67281;48.770;11.440;2023-05-21T11:04:25;7.27;;;5.77;;
78072;SDS011;67281;48.770;11.440;2023-05-21T11:06:53;7.17;;;6.10;;
78072;SDS011;67281;48.770;11.440;2023-05-21T11:09:21;9.40;;;6.17;;
78072;SDS011;67281;48.770;11.440;2023-05-21T11:11:52;6.97;;;6.20;;
78072;SDS011;67281;48.770;11.440;2023-05-21T11:14:27;7.70;;;5.97;;
78072;SDS011;67281;48.770;11.440;2023-05-21T11:19:36;11.80;;;6.07;;
78072;SDS011;67281;48.770;11.440;2023-05-21T11:22:08;6.93;;;6.23;;
78072;SDS011;67281;48.770;11.440;2023-05-21T11:24:39;6.43;;;5.80;;
78072;SDS011;67281;48.770;11.440;2023-05-21T11:27:06;8.40;;;5.77;;
78072;SDS011;67281;48.770;11.440;2023-05-21T11:32:09;10.03;;;5.33;;
78072;SDS011;67281;48.770;11.440;2023-05-21T11:34:41;8.13;;;5.77;;
78072;SDS011;67281;48.770;11.440;2023-05-21T11:39:46;8.57;;;6.00;;
78072;SDS011;67281;48.770;11.440;2023-05-21T11:42:33;6.80;;;5.87;;
78072;SDS011;67281;48.770;11.440;2023-05-21T11:45:04;7.27;;;5.70;;
78072;SDS011;67281;48.770;11.440;2023-05-21T11:47:31;7.10;;;6.00;;
78072;SDS011;67281;48.770;11.440;2023-05-21T11:49:59;8.20;;;5.90;;
78072;SDS011;67281;48.770;11.440;2023-05-21T11:52:28;7.53;;;6.60;;
78072;SDS011;67281;48.770;11.440;2023-05-21T11:54:56;6.33;;;5.47;;
78072;SDS011;67281;48.770;11.440;2023-05-21T11:57:25;10.00;;;6.40;;
78072;SDS011;67281;48.770;11.440;2023-05-21T11:59:56;6.13;;;5.10;;
78072;SDS011;67281;48.770;11.440;2023-05-21T12:02:25;7.67;;;6.13;;
78072;SDS011;67281;48.770;11.440;2023-05-21T12:04:56;6.20;;;5.37;;
78072;SDS011;67281;48.770;11.440;2023-05-21T12:07:26;6.43;;;5.33;;
78072;SDS011;67281;48.770;11.440;2023-05-21T12:09:59;7.63;;;5.83;;
78072;SDS011;67281;48.770;11.440;2023-05-21T12:12:26;7.57;;;5.33;;
78072;SDS011;67281;48.770;11.440;2023-05-21T12:15:10;6.93;;;6.23;;
78072;SDS011;67281;48.770;11.440;2023-05-21T12:17:38;8.10;;;5.23;;
78072;SDS011;67281;48.770;11.440;2023-05-21T12:20:06;6.03;;;5.43;;
78072;SDS011;67281;48.770;11.440;2023-05-21T12:22:39;7.05;;;5.53;;
78072;SDS011;67281;48.770;11.440;2023-05-21T12:25:08;6.32;;;5.30;;
78072;SDS011;67281;48.770;11.440;2023-05-21T12:27:35;7.75;;;5.22;;
78072;SDS011;67281;48.770;11.440;2023-05-21T12:30:02;6.97;;;5.68;;
78072;SDS011;67281;48.770;11.440;2023-05-21T12:32:31;5.97;;;5.38;;
78072;SDS011;67281;48.770;11.440;2023-05-21T12:34:58;6.05;;;5.22;;
78072;SDS011;67281;48.770;11.440;2023-05-21T12:37:26;6.50;;;5.10;;
78072;SDS011;67281;48.770;11.440;2023-05-21T12:39:58;6.85;;;5.38;;
78072;SDS011;67281;48.770;11.440;2023-05-21T12:42:27;6.47;;;5.47;;
78072;SDS011;67281;48.770;11.440;2023-05-21T12:45:06;7.72;;;5.30;;
78072;SDS011;67281;48.770;11.440;2023-05-21T12:47:35;6.10;;;5.43;;
78072;SDS011;67281;48.770;11.440;2023-05-21T12:50:03;8.23;;;5.20;;
78072;SDS011;67281;48.770;11.440;2023-05-21T12:52:33;8.20;;;6.20;;
78072;SDS011;67281;48.770;11.440;2023-05-21T12:55:00;5.65;;;5.15;;
78072;SDS011;67281;48.770;11.440;2023-05-21T12:57:34;7.22;;;5.55;;
78072;SDS011;67281;48.770;11.440;2023-05-21T13:00:02;7.68;;;6.22;;
78072;SDS011;67281;48.770;11.440;2023-05-21T13:05:00;7.18;;;5.25;;
78072;SDS011;67281;48.770;11.440;2023-05-21T13:07:32;5.70;;;5.10;;
78072;SDS011;67281;48.770;11.440;2023-05-21T13:10:04;8.95;;;5.55;;
78072;SDS011;67281;48.770;11.440;2023-05-21T13:12:31;5.68;;;4.97;;
78072;SDS011;67281;48.770;11.440;2023-05-21T13:15:00;7.82;;;5.93;;
78072;SDS011;67281;48.770;11.440;2023-05-21T13:17:28;8.98;;;6.00;;
78072;SDS011;67281;48.770;11.440;2023-05-21T13:22:38;5.85;;;5.25;;
78072;SDS011;67281;48.770;11.440;2023-05-21T13:25:08;5.78;;;4.90;;
78072;SDS011;67281;48.770;11.440;2023-05-21T13:27:41;6.22;;;4.97;;
78072;SDS011;67281;48.770;11.440;2023-05-21T13:30:09;6.95;;;5.15;;
78072;SDS011;67281;48.770;11.440;2023-05-21T13:32:39;5.78;;;5.18;;
78072;SDS011;67281;48.770;11.440;2023-05-21T13:35:08;6.10;;;5.45;;
78072;SDS011;67281;48.770;11.440;2023-05-21T13:37:39;7.40;;;5.68;;
78072;SDS011;67281;48.770;11.440;2023-05-21T13:40:07;6.75;;;5.85;;
78072;SDS011;67281;48.770;11.440;2023-05-21T13:42:44;6.00;;;5.30;;
78072;SDS011;67281;48.770;11.440;2023-05-21T13:45:14;6.53;;;5.13;;
78072;SDS011;67281;48.770;11.440;2023-05-21T13:47:43;6.30;;;5.43;;
78072;SDS011;67281;48.770;11.440;2023-05-21T13:50:10;9.02;;;5.95;;
78072;SDS011;67281;48.770;11.440;2023-05-21T13:52:38;6.70;;;5.43;;
78072;SDS011;67281;48.770;11.440;2023-05-21T13:55:05;7.53;;;6.00;;
78072;SDS011;67281;48.770;11.440;2023-05-21T13:57:32;6.45;;;5.65;;
78072;SDS011;67281;48.770;11.440;2023-05-21T13:59:59;6.13;;;5.53;;
78072;SDS011;67281;48.770;11.440;2023-05-21T14:02:27;6.88;;;6.18;;
78072;SDS011;67281;48.770;11.440;2023-05-21T14:04:54;6.70;;;5.75;;
78072;SDS011;67281;48.770;11.440;2023-05-21T14:07:21;7.18;;;5.93;;
78072;SDS011;67281;48.770;11.440;2023-05-21T14:09:48;8.48;;;6.38;;
78072;SDS011;67281;48.770;11.440;2023-05-21T14:12:15;7.65;;;5.75;;
78072;SDS011;67281;48.770;11.440;2023-05-21T14:14:42;11.23;;;6.45;;
78072;SDS011;67281;48.770;11.440;2023-05-21T14:17:10;6.80;;;6.10;;
78072;SDS011;67281;48.770;11.440;2023-05-21T14:19:37;7.55;;;5.95;;
78072;SDS011;67281;48.770;11.440;2023-05-21T14:22:04;7.70;;;6.45;;
78072;SDS011;67281;48.770;11.440;2023-05-21T14:24:31;6.45;;;5.78;;
78072;SDS011;67281;48.770;11.440;2023-05-21T14:26:58;8.68;;;6.07;;
78072;SDS011;67281;48.770;11.440;2023-05-21T14:29:25;6.55;;;5.85;;
78072;SDS011;67281;48.770;11.440;2023-05-21T14:31:52;9.82;;;6.20;;
78072;SDS011;67281;48.770;11.440;2023-05-21T14:34:19;10.55;;;5.50;;
78072;SDS011;67281;48.770;11.440;2023-05-21T14:36:46;9.23;;;5.38;;
78072;SDS011;67281;48.770;11.440;2023-05-21T14:39:12;6.82;;;5.88;;
78072;SDS011;67281;48.770;11.440;2023-05-21T14:41:39;7.72;;;5.20;;
78072;SDS011;67281;48.770;11.440;2023-05-21T14:44:09;5.93;;;5.32;;
78072;SDS011;67281;48.770;11.440;2023-05-21T14:46:37;8.60;;;5.50;;
78072;SDS011;67281;48.770;11.440;2023-05-21T14:49:04;7.55;;;5.93;;
78072;SDS011;67281;48.770;11.440;2023-05-21T14:51:31;9.85;;;6.07;;
78072;SDS011;67281;48.770;11.440;2023-05-21T14:53:58;6.40;;;5.80;;
78072;SDS011;67281;48.770;11.440;2023-05-21T14:56:25;10.35;;;5.65;;
78072;SDS011;67281;48.770;11.440;2023-05-21T14:58:53;8.85;;;6.20;;
78072;SDS011;67281;48.770;11.440;2023-05-21T15:01:21;7.05;;;5.72;;
78072;SDS011;67281;48.770;11.440;2023-05-21T15:03:48;6.28;;;5.40;;
78072;SDS011;67281;48.770;11.440;2023-05-21T15:06:15;9.95;;;6.28;;
78072;SDS011;67281;48.770;11.440;2023-05-21T15:08:42;7.20;;;5.70;;
78072;SDS011;67281;48.770;11.440;2023-05-21T15:11:09;8.05;;;5.90;;